createdAt,value
2019-05-14T00:01:11.758Z,9.84
2019-05-14T00:06:13.702Z,9.81
2019-05-14T00:11:16.428Z,9.76
2019-05-14T00:16:21.658Z,9.75
2019-05-14T00:21:23.785Z,9.76
2019-05-14T00:26:26.506Z,9.72
2019-05-14T00:31:29.239Z,9.66
2019-05-14T00:36:32.034Z,9.67
2019-05-14T00:41:34.832Z,9.55
2019-05-14T00:46:40.947Z,9.57
2019-05-14T00:51:44.563Z,9.63
2019-05-14T00:56:47.350Z,9.74
2019-05-14T01:01:51.621Z,9.80
2019-05-14T01:06:54.554Z,9.78
2019-05-14T01:11:57.354Z,9.93
2019-05-14T01:17:02.008Z,9.99
2019-05-14T01:22:04.864Z,10.02
2019-05-14T01:27:07.576Z,9.99
2019-05-14T01:32:11.664Z,10.03
2019-05-14T01:37:14.533Z,10.07
2019-05-14T01:42:17.361Z,10.09
2019-05-14T01:47:21.385Z,10.01
2019-05-14T01:52:24.887Z,10.02
2019-05-14T01:57:27.692Z,10.02
2019-05-14T02:02:31.315Z,9.81
2019-05-14T02:07:34.230Z,9.82
2019-05-14T02:12:36.934Z,9.71
2019-05-14T02:17:41.373Z,9.54
2019-05-14T02:22:44.268Z,9.47
2019-05-14T02:27:46.967Z,9.43
2019-05-14T02:32:49.979Z,9.45
2019-05-14T02:37:52.892Z,9.40
2019-05-14T02:42:59.024Z,9.33
2019-05-14T02:48:00.685Z,9.53
2019-05-14T02:53:03.660Z,9.57
2019-05-14T02:58:09.744Z,9.59
2019-05-14T03:03:11.005Z,9.65
2019-05-14T03:08:13.754Z,9.66
2019-05-14T03:13:16.493Z,9.75
2019-05-14T03:18:21.116Z,9.89
2019-05-14T03:23:23.838Z,9.74
2019-05-14T03:28:30.086Z,9.86
2019-05-14T03:33:33.552Z,9.85
2019-05-14T03:38:39.443Z,9.81
2019-05-14T03:43:40.907Z,9.83
2019-05-14T03:48:43.623Z,9.85
2019-05-14T03:53:59.977Z,9.87
2019-05-14T03:58:50.967Z,9.87
2019-05-14T04:03:53.900Z,9.92
2019-05-14T04:09:00.543Z,9.94
2019-05-14T04:14:04.114Z,10.04
2019-05-14T04:19:11.400Z,10.10
2019-05-14T04:24:20.035Z,10.16
2019-05-14T04:29:30.293Z,10.16
2019-05-14T04:34:32.778Z,10.28
2019-05-14T04:39:35.592Z,10.39
2019-05-14T04:44:40.569Z,10.53
2019-05-14T04:49:45.335Z,10.51
2019-05-14T04:54:49.960Z,10.48
2019-05-14T04:59:52.976Z,10.51
2019-05-14T05:04:55.717Z,10.52
2019-05-14T05:09:59.546Z,10.62
2019-05-14T05:15:02.675Z,10.76
2019-05-14T05:20:06.298Z,10.90
2019-05-14T05:25:09.114Z,10.88
2019-05-14T05:30:11.959Z,10.93
2019-05-14T05:35:14.928Z,11.11
2019-05-14T05:40:19.750Z,11.27
2019-05-14T05:45:22.257Z,10.77
2019-05-14T05:50:24.963Z,10.74
2019-05-14T05:55:28.778Z,10.64
2019-05-14T06:00:35.829Z,10.67
2019-05-14T06:05:39.070Z,10.94
2019-05-14T06:10:41.977Z,11.34
2019-05-14T06:15:48.675Z,11.51
2019-05-14T06:20:49.590Z,11.55
2019-05-14T06:25:52.407Z,11.82
2019-05-14T06:30:55.175Z,12.09
2019-05-14T06:35:59.137Z,12.33
2019-05-14T06:41:02.221Z,12.20
2019-05-14T06:46:04.953Z,12.40
2019-05-14T06:51:08.824Z,12.55
2019-05-14T06:56:11.791Z,12.83
2019-05-14T07:01:14.511Z,13.14
2019-05-14T07:06:18.669Z,12.89
2019-05-14T07:11:21.666Z,12.97
2019-05-14T07:16:24.398Z,12.85
2019-05-14T07:21:29.181Z,13.07
2019-05-14T07:26:31.779Z,13.18
2019-05-14T07:31:34.495Z,13.56
2019-05-14T07:36:38.721Z,13.75
2019-05-14T07:41:41.796Z,13.96
2019-05-14T07:46:45.145Z,14.09
2019-05-14T07:51:48.278Z,14.63
2019-05-14T07:56:53.005Z,14.49
2019-05-14T08:01:55.735Z,14.31
2019-05-14T08:06:58.494Z,14.62
2019-05-14T08:12:01.210Z,14.89
2019-05-14T08:17:03.974Z,14.80
2019-05-14T08:22:09.155Z,15.02
2019-05-14T08:27:11.311Z,15.29
2019-05-14T08:32:14.026Z,15.60
2019-05-14T08:37:18.904Z,16.32
2019-05-14T08:42:21.404Z,16.11
2019-05-14T08:47:24.179Z,17.24
2019-05-14T08:52:28.860Z,17.79
2019-05-14T08:57:31.645Z,17.86
2019-05-14T09:02:35.069Z,16.68
2019-05-14T09:07:38.460Z,16.05
2019-05-14T09:12:42.348Z,16.10
2019-05-14T09:17:48.126Z,16.20
2019-05-14T09:22:51.190Z,16.14
2019-05-14T09:27:54.554Z,17.03
2019-05-14T09:32:59.383Z,17.28
2019-05-14T09:38:03.372Z,17.45
2019-05-14T09:43:09.046Z,17.45
2019-05-14T09:48:12.274Z,17.13
2019-05-14T09:53:18.020Z,17.20
2019-05-14T09:58:21.591Z,17.43
2019-05-14T10:03:25.441Z,17.43
2019-05-14T10:08:29.072Z,17.43
2019-05-14T10:13:32.600Z,17.48
2019-05-14T10:18:37.876Z,17.64
2019-05-14T10:23:40.456Z,17.50
2019-05-14T10:28:43.678Z,17.09
2019-05-14T10:33:48.531Z,16.97
2019-05-14T10:38:52.154Z,17.04
2019-05-14T10:43:55.345Z,16.83
2019-05-14T10:49:03.550Z,16.91
2019-05-14T10:54:20.529Z,17.19
2019-05-14T10:59:09.629Z,18.18
2019-05-14T11:04:12.490Z,18.67
2019-05-14T11:09:17.925Z,18.68
2019-05-14T11:14:21.490Z,18.81
2019-05-14T11:19:24.949Z,19.22
2019-05-14T11:24:29.534Z,19.23
2019-05-14T11:29:32.532Z,18.97
2019-05-14T11:34:35.266Z,18.55
2019-05-14T11:39:38.768Z,18.21
2019-05-14T11:44:42.615Z,18.65
2019-05-14T11:49:49.002Z,19.28
2019-05-14T11:54:52.596Z,19.73
2019-05-14T11:59:58.082Z,19.82
2019-05-14T12:05:01.586Z,19.82
2019-05-14T12:10:08.843Z,19.61
2019-05-14T12:15:11.266Z,19.50
2019-05-14T12:20:14.396Z,19.28
2019-05-14T12:25:18.820Z,19.43
2019-05-14T12:30:21.838Z,19.24
2019-05-14T12:35:24.545Z,19.46
2019-05-14T12:40:28.839Z,18.83
2019-05-14T12:45:32.021Z,18.68
2019-05-14T12:50:34.869Z,19.11
2019-05-14T12:55:39.968Z,19.66
2019-05-14T13:00:42.289Z,19.52
2019-05-14T13:05:45.032Z,19.28
2019-05-14T13:10:49.135Z,19.51
2019-05-14T13:15:52.170Z,19.21
2019-05-14T13:20:54.908Z,19.12
2019-05-14T13:25:59.017Z,18.70
2019-05-14T13:31:02.123Z,18.67
2019-05-14T13:36:04.904Z,18.74
2019-05-14T13:41:08.641Z,18.40
2019-05-14T13:46:14.947Z,18.41
2019-05-14T13:51:16.203Z,18.65
2019-05-14T13:56:19.140Z,19.14
2019-05-14T14:01:21.977Z,19.48
2019-05-14T14:06:24.706Z,19.01
2019-05-14T14:11:28.665Z,19.03
2019-05-14T14:16:32.112Z,18.75
2019-05-14T14:21:34.868Z,19.15
2019-05-14T14:26:39.392Z,19.56
2019-05-14T14:31:42.345Z,19.47
2019-05-14T14:36:45.109Z,19.87
2019-05-14T14:41:48.901Z,19.96
2019-05-14T14:46:51.846Z,19.98
2019-05-14T14:51:54.588Z,20.20
2019-05-14T14:57:09.782Z,20.68
2019-05-14T15:02:12.567Z,20.94
2019-05-14T15:07:20.144Z,20.43
2019-05-14T15:12:29.106Z,20.53
2019-05-14T15:17:35.107Z,20.30
2019-05-14T15:22:39.055Z,19.87
2019-05-14T15:27:43.784Z,20.26
2019-05-14T15:32:51.533Z,20.56
2019-05-14T15:37:58.941Z,20.82
2019-05-14T15:43:02.543Z,20.83
2019-05-14T15:48:08.981Z,20.43
2019-05-14T15:53:11.873Z,19.79
2019-05-14T15:58:20.824Z,20.30
2019-05-14T16:03:23.130Z,20.63
2019-05-14T16:08:25.916Z,20.21
2019-05-14T16:13:28.689Z,19.34
2019-05-14T16:18:31.495Z,19.33
2019-05-14T16:23:34.311Z,20.00
2019-05-14T16:28:39.536Z,20.23
2019-05-14T16:33:41.674Z,20.41
2019-05-14T16:38:44.404Z,20.40
2019-05-14T16:43:49.427Z,20.92
2019-05-14T16:48:51.995Z,20.94
2019-05-14T16:53:54.754Z,20.22
2019-05-14T16:58:58.311Z,19.45
2019-05-14T17:04:01.218Z,19.24
2019-05-14T17:09:08.841Z,18.97
2019-05-14T17:14:11.226Z,19.56
2019-05-14T17:19:14.151Z,19.48
2019-05-14T17:24:19.769Z,19.16
2019-05-14T17:29:21.626Z,18.94
2019-05-14T17:34:24.359Z,18.74
2019-05-14T17:39:27.187Z,18.70
2019-05-14T17:44:29.929Z,18.11
2019-05-14T17:49:32.677Z,18.16
2019-05-14T17:54:35.414Z,18.21
2019-05-14T17:59:39.066Z,18.21
2019-05-14T18:04:43.197Z,18.19
2019-05-14T18:09:46.080Z,17.99
2019-05-14T18:14:48.893Z,17.88
2019-05-14T18:19:51.650Z,17.48
2019-05-14T18:24:54.433Z,17.44
2019-05-14T18:29:59.293Z,17.49
2019-05-14T18:35:05.753Z,17.12
2019-05-14T18:40:10.574Z,16.87
2019-05-14T18:45:15.404Z,16.69
2019-05-14T18:50:19.751Z,16.53
2019-05-14T18:55:23.372Z,16.24
2019-05-14T19:00:29.483Z,16.16
2019-05-14T19:05:32.542Z,16.05
2019-05-14T19:10:39.033Z,15.89
2019-05-14T19:15:42.201Z,15.76
2019-05-14T19:20:48.422Z,15.62
2019-05-14T19:25:51.743Z,15.70
2019-05-14T19:30:56.029Z,15.41
2019-05-14T19:35:59.921Z,15.46
2019-05-14T19:41:04.826Z,15.22
2019-05-14T19:46:08.965Z,15.29
2019-05-14T19:51:13.489Z,14.96
2019-05-14T19:56:17.525Z,14.83
2019-05-14T20:01:21.403Z,14.64
2019-05-14T20:06:29.542Z,14.43
2019-05-14T20:11:33.809Z,14.36
2019-05-14T20:16:39.288Z,14.21
2019-05-14T20:21:42.972Z,14.11
2019-05-14T20:26:48.804Z,13.99
2019-05-14T20:31:52.298Z,13.78
2019-05-14T20:36:58.732Z,13.78
2019-05-14T20:42:01.938Z,13.76
2019-05-14T20:47:04.729Z,13.58
2019-05-14T20:52:09.341Z,13.33
2019-05-14T20:57:23.243Z,13.37
2019-05-14T21:02:18.576Z,13.34
2019-05-14T21:07:21.482Z,13.32
2019-05-14T21:12:24.214Z,13.18
2019-05-14T21:17:28.249Z,13.20
2019-05-14T21:22:31.111Z,13.03
2019-05-14T21:27:44.552Z,12.79
2019-05-14T21:32:42.038Z,12.66
2019-05-14T21:37:43.176Z,12.74
2019-05-14T21:42:45.921Z,12.71
2019-05-14T21:47:48.640Z,12.60
2019-05-14T21:52:51.337Z,12.58
2019-05-14T21:57:57.157Z,12.67
2019-05-14T22:02:58.804Z,12.55
2019-05-14T22:08:01.558Z,12.31
2019-05-14T22:13:04.362Z,12.29
2019-05-14T22:18:16.606Z,12.01
2019-05-14T22:23:11.886Z,12.07
2019-05-14T22:28:15.816Z,11.91
2019-05-14T22:33:19.249Z,11.82
2019-05-14T22:38:21.979Z,11.85
2019-05-14T22:43:24.711Z,11.81
2019-05-14T22:48:27.434Z,11.66
2019-05-14T22:53:30.535Z,11.56
2019-05-14T22:58:33.334Z,11.48
2019-05-14T23:03:36.092Z,11.42
2019-05-14T23:08:39.222Z,11.32
2019-05-14T23:13:42.230Z,11.23
2019-05-14T23:18:44.959Z,11.18
2019-05-14T23:23:47.863Z,11.12
2019-05-14T23:28:50.684Z,11.20
2019-05-14T23:33:53.402Z,11.26
2019-05-14T23:38:59.146Z,11.16
2019-05-14T23:44:01.933Z,11.20
2019-05-14T23:49:04.660Z,11.11
2019-05-14T23:54:08.801Z,11.07
2019-05-14T23:59:11.851Z,10.97
